createdAt,value
2023-05-07T00:00:09.115Z,54.16
2023-05-07T00:02:38.606Z,54.42
2023-05-07T00:05:06.509Z,54.21
2023-05-07T00:07:34.384Z,54.56
2023-05-07T00:10:01.768Z,54.59
2023-05-07T00:12:34.991Z,54.59
2023-05-07T00:15:04.334Z,54.68
2023-05-07T00:17:35.486Z,54.56
2023-05-07T00:20:04.653Z,54.78
2023-05-07T00:22:34.379Z,54.88
2023-05-07T00:25:01.912Z,54.91
2023-05-07T00:27:34.106Z,55.07
2023-05-07T00:30:01.605Z,54.97
2023-05-07T00:32:35.124Z,55.67
2023-05-07T00:35:02.339Z,54.53
2023-05-07T00:37:31.565Z,54.47
2023-05-07T00:39:58.977Z,54.82
2023-05-07T00:42:26.097Z,54.83
2023-05-07T00:44:53.235Z,55.03
2023-05-07T00:47:20.433Z,55.16
2023-05-07T00:49:47.567Z,55.31
2023-05-07T00:52:16.741Z,55.43
2023-05-07T00:54:44.676Z,55.51
2023-05-07T00:57:15.301Z,55.32
2023-05-07T00:59:43.179Z,55.59
2023-05-07T01:02:10.458Z,55.77
2023-05-07T01:04:38.163Z,55.85
2023-05-07T01:07:06.560Z,55.55
2023-05-07T01:09:36.427Z,55.88
2023-05-07T01:12:04.877Z,55.81
2023-05-07T01:14:34.211Z,56.18
2023-05-07T01:17:01.740Z,56.16
2023-05-07T01:19:31.352Z,56.50
2023-05-07T01:22:05.352Z,56.62
2023-05-07T01:24:39.210Z,56.35
2023-05-07T01:27:08.089Z,56.44
2023-05-07T01:29:36.643Z,56.58
2023-05-07T01:32:04.617Z,56.47
2023-05-07T01:34:34.076Z,56.24
2023-05-07T01:37:01.763Z,56.63
2023-05-07T01:39:30.622Z,56.50
2023-05-07T01:41:57.859Z,56.83
2023-05-07T01:44:26.010Z,56.80
2023-05-07T01:46:54.859Z,56.59
2023-05-07T01:49:22.323Z,56.77
2023-05-07T01:51:50.164Z,56.76
2023-05-07T01:54:17.833Z,56.84
2023-05-07T01:56:45.785Z,56.95
2023-05-07T01:59:14.698Z,56.96
2023-05-07T02:01:41.999Z,56.77
2023-05-07T02:04:11.011Z,57.27
2023-05-07T02:06:38.371Z,57.07
2023-05-07T02:09:07.272Z,57.07
2023-05-07T02:11:34.685Z,57.06
2023-05-07T02:14:02.290Z,57.23
2023-05-07T02:16:29.677Z,57.12
2023-05-07T02:18:57.737Z,57.25
2023-05-07T02:21:26.341Z,57.41
2023-05-07T02:23:53.452Z,57.14
2023-05-07T02:26:20.509Z,57.34
2023-05-07T02:28:48.398Z,57.21
2023-05-07T02:31:15.733Z,57.39
2023-05-07T02:33:42.897Z,57.44
2023-05-07T02:36:11.664Z,56.99
2023-05-07T02:38:48.252Z,57.21
2023-05-07T02:41:15.613Z,57.13
2023-05-07T02:43:42.819Z,56.91
2023-05-07T02:46:11.212Z,57.06
2023-05-07T02:48:42.521Z,57.12
2023-05-07T02:51:09.679Z,57.04
2023-05-07T02:53:39.007Z,57.04
2023-05-07T02:56:07.483Z,57.14
2023-05-07T02:58:34.698Z,57.13
2023-05-07T03:01:03.218Z,57.09
2023-05-07T03:03:53.632Z,57.19
2023-05-07T03:06:20.708Z,56.85
2023-05-07T03:08:48.029Z,56.96
2023-05-07T03:11:15.768Z,57.04
2023-05-07T03:13:42.927Z,56.99
2023-05-07T03:16:10.316Z,56.87
2023-05-07T03:18:37.586Z,56.79
2023-05-07T03:21:04.752Z,56.83
2023-05-07T03:23:31.859Z,56.93
2023-05-07T03:25:59.125Z,56.75
2023-05-07T03:28:26.944Z,56.83
2023-05-07T03:30:59.754Z,56.71
2023-05-07T03:33:28.487Z,56.87
2023-05-07T03:35:56.403Z,56.62
2023-05-07T03:38:25.683Z,56.91
2023-05-07T03:40:53.020Z,56.58
2023-05-07T03:43:20.389Z,56.56
2023-05-07T03:45:52.932Z,56.73
2023-05-07T03:48:24.598Z,56.00
2023-05-07T03:50:53.958Z,56.57
2023-05-07T03:53:21.997Z,56.24
2023-05-07T03:55:49.119Z,55.83
2023-05-07T03:58:16.618Z,55.91
2023-05-07T04:00:44.108Z,56.01
2023-05-07T04:03:21.868Z,56.11
2023-05-07T04:05:50.092Z,55.80
2023-05-07T04:08:17.284Z,55.59
2023-05-07T04:10:48.699Z,55.47
2023-05-07T04:13:15.909Z,55.39
2023-05-07T04:15:43.616Z,55.66
2023-05-07T04:18:13.426Z,55.49
2023-05-07T04:20:44.076Z,55.55
2023-05-07T04:23:13.997Z,55.08
2023-05-07T04:25:41.864Z,55.26
2023-05-07T04:28:20.593Z,54.66
2023-05-07T04:30:48.022Z,54.95
2023-05-07T04:33:18.069Z,54.86
2023-05-07T04:35:46.188Z,54.56
2023-05-07T04:38:14.064Z,54.41
2023-05-07T04:40:42.250Z,54.33
2023-05-07T04:43:11.939Z,54.48
2023-05-07T04:45:45.712Z,54.40
2023-05-07T04:48:13.233Z,53.93
2023-05-07T04:50:41.851Z,53.83
2023-05-07T04:53:09.516Z,53.83
2023-05-07T04:55:36.773Z,53.75
2023-05-07T04:58:05.953Z,53.55
2023-05-07T05:00:35.404Z,53.68
2023-05-07T05:03:04.919Z,53.55
2023-05-07T05:05:32.758Z,53.43
2023-05-07T05:08:00.071Z,53.33
2023-05-07T05:10:27.534Z,52.89
2023-05-07T05:12:54.771Z,53.25
2023-05-07T05:15:23.583Z,52.80
2023-05-07T05:17:50.958Z,52.38
2023-05-07T05:20:19.705Z,52.05
2023-05-07T05:22:48.979Z,52.06
2023-05-07T05:25:16.304Z,51.65
2023-05-07T05:27:43.458Z,51.78
2023-05-07T05:30:11.427Z,51.46
2023-05-07T05:32:39.969Z,51.12
2023-05-07T05:35:08.206Z,50.71
2023-05-07T05:37:36.395Z,50.73
2023-05-07T05:40:07.015Z,50.71
2023-05-07T05:42:34.575Z,50.12
2023-05-07T05:45:02.269Z,49.94
2023-05-07T05:47:33.393Z,50.08
2023-05-07T05:50:01.331Z,49.85
2023-05-07T05:52:32.817Z,50.16
2023-05-07T05:55:00.339Z,49.75
2023-05-07T05:57:28.770Z,49.19
2023-05-07T05:59:56.995Z,48.84
2023-05-07T06:02:25.453Z,48.16
2023-05-07T06:04:53.630Z,47.96
2023-05-07T06:07:22.926Z,47.49
2023-05-07T06:09:50.505Z,47.97
2023-05-07T06:12:18.046Z,47.79
2023-05-07T06:14:45.419Z,47.53
2023-05-07T06:17:13.483Z,48.15
2023-05-07T06:19:40.886Z,48.05
2023-05-07T06:22:08.603Z,47.70
2023-05-07T06:24:36.690Z,47.78
2023-05-07T06:27:06.317Z,47.25
2023-05-07T06:29:34.006Z,47.28
2023-05-07T06:32:20.883Z,45.02
2023-05-07T06:34:47.953Z,46.70
2023-05-07T06:37:16.194Z,46.54
2023-05-07T06:39:54.142Z,45.73
2023-05-07T06:42:21.312Z,45.46
2023-05-07T06:44:50.112Z,46.08
2023-05-07T06:47:18.724Z,45.82
2023-05-07T06:49:50.574Z,45.03
2023-05-07T06:52:22.007Z,45.00
2023-05-07T06:54:51.199Z,45.19
2023-05-07T06:57:21.464Z,44.37
2023-05-07T06:59:48.655Z,44.76
2023-05-07T07:02:18.172Z,43.92
2023-05-07T07:04:47.150Z,44.51
2023-05-07T07:07:14.933Z,44.09
2023-05-07T07:09:44.437Z,43.52
2023-05-07T07:12:11.979Z,43.59
2023-05-07T07:14:41.297Z,43.30
2023-05-07T07:17:08.336Z,43.73
2023-05-07T07:19:35.555Z,43.47
2023-05-07T07:22:04.425Z,43.62
2023-05-07T07:24:31.768Z,43.42
2023-05-07T07:27:02.288Z,42.94
2023-05-07T07:29:30.150Z,43.02
2023-05-07T07:31:57.741Z,42.19
2023-05-07T07:34:25.183Z,41.81
2023-05-07T07:36:52.656Z,42.08
2023-05-07T07:39:20.392Z,41.67
2023-05-07T07:41:50.844Z,41.47
2023-05-07T07:44:19.390Z,41.54
2023-05-07T07:46:51.945Z,41.14
2023-05-07T07:49:20.648Z,40.91
2023-05-07T07:51:48.497Z,40.65
2023-05-07T07:54:16.579Z,40.88
2023-05-07T07:56:44.097Z,41.20
2023-05-07T07:59:12.326Z,40.74
2023-05-07T08:01:41.419Z,40.34
2023-05-07T08:04:08.957Z,40.32
2023-05-07T08:06:39.669Z,39.89
2023-05-07T08:09:09.445Z,39.89
2023-05-07T08:11:39.753Z,39.57
2023-05-07T08:14:07.180Z,39.12
2023-05-07T08:16:34.502Z,39.08
2023-05-07T08:19:02.513Z,38.92
2023-05-07T08:21:30.475Z,39.10
2023-05-07T08:23:58.512Z,38.88
2023-05-07T08:26:25.648Z,39.02
2023-05-07T08:28:52.902Z,38.52
2023-05-07T08:31:20.201Z,38.68
2023-05-07T08:33:47.758Z,38.51
2023-05-07T08:36:14.852Z,38.60
2023-05-07T08:38:43.981Z,38.42
2023-05-07T08:41:12.211Z,38.51
2023-05-07T08:43:43.145Z,37.87
2023-05-07T08:46:14.149Z,37.88
2023-05-07T08:48:43.903Z,37.13
2023-05-07T08:51:17.312Z,37.04
2023-05-07T08:53:45.628Z,36.78
2023-05-07T08:56:20.296Z,37.09
2023-05-07T08:58:49.321Z,36.94
2023-05-07T09:01:18.329Z,36.45
2023-05-07T09:03:49.335Z,36.99
2023-05-07T09:06:16.788Z,36.39
2023-05-07T09:08:55.720Z,34.77
2023-05-07T09:11:26.432Z,36.12
2023-05-07T09:13:57.592Z,36.13
2023-05-07T09:16:27.314Z,35.83
2023-05-07T09:18:56.754Z,36.09
2023-05-07T09:21:24.353Z,36.12
2023-05-07T09:23:56.550Z,35.93
2023-05-07T09:26:30.673Z,35.52
2023-05-07T09:28:57.962Z,34.99
2023-05-07T09:31:26.221Z,34.87
2023-05-07T09:33:57.062Z,34.57
2023-05-07T09:36:28.317Z,34.21
2023-05-07T09:38:55.463Z,33.92
2023-05-07T09:41:22.774Z,34.05
2023-05-07T09:44:12.109Z,34.07
2023-05-07T09:46:47.937Z,33.89
2023-05-07T09:49:26.171Z,33.44
2023-05-07T09:52:02.000Z,33.98
2023-05-07T09:54:33.914Z,34.24
2023-05-07T09:57:04.200Z,34.15
2023-05-07T09:59:33.998Z,33.86
2023-05-07T10:02:05.394Z,34.17
2023-05-07T10:04:37.020Z,34.04
2023-05-07T10:07:06.060Z,33.58
2023-05-07T10:09:34.527Z,33.20
2023-05-07T10:12:02.199Z,33.35
2023-05-07T10:14:30.682Z,33.31
2023-05-07T10:16:58.475Z,32.85
2023-05-07T10:19:27.535Z,32.39
2023-05-07T10:22:03.208Z,31.88
2023-05-07T10:24:35.218Z,32.27
2023-05-07T10:27:12.156Z,31.76
2023-05-07T10:30:00.002Z,31.22
2023-05-07T10:32:49.892Z,31.08
2023-05-07T10:35:30.585Z,31.79
2023-05-07T10:37:58.992Z,31.57
2023-05-07T10:40:28.796Z,31.95
2023-05-07T10:42:59.155Z,31.30
2023-05-07T10:45:28.902Z,31.60
2023-05-07T10:48:29.017Z,30.02
2023-05-07T10:51:23.299Z,30.91
2023-05-07T10:54:10.917Z,30.67
2023-05-07T10:56:45.424Z,31.63
2023-05-07T10:59:24.881Z,30.83
2023-05-07T11:01:57.300Z,31.89
2023-05-07T11:04:40.070Z,31.73
2023-05-07T11:07:31.881Z,30.37
2023-05-07T11:10:10.199Z,32.31
2023-05-07T11:12:54.089Z,31.90
2023-05-07T11:15:40.557Z,31.86
2023-05-07T11:18:18.663Z,31.93
2023-05-07T11:20:48.812Z,31.46
2023-05-07T11:23:39.477Z,31.76
2023-05-07T11:26:14.538Z,31.31
2023-05-07T11:28:43.828Z,30.76
2023-05-07T11:31:31.226Z,31.26
2023-05-07T11:34:01.952Z,31.28
2023-05-07T11:36:33.448Z,30.75
2023-05-07T11:39:02.910Z,31.35
2023-05-07T11:41:38.178Z,30.54
2023-05-07T11:44:05.539Z,30.72
2023-05-07T11:46:33.540Z,30.77
2023-05-07T11:49:01.984Z,30.24
2023-05-07T11:51:29.482Z,29.56
2023-05-07T11:53:56.571Z,29.79
2023-05-07T11:56:24.169Z,29.34
2023-05-07T11:58:53.259Z,29.95
2023-05-07T12:01:20.562Z,30.10
2023-05-07T12:03:47.965Z,30.08
2023-05-07T12:06:18.513Z,29.61
2023-05-07T12:08:48.922Z,29.90
2023-05-07T12:11:23.380Z,29.69
2023-05-07T12:13:53.178Z,29.91
2023-05-07T12:16:21.741Z,30.13
2023-05-07T12:18:49.850Z,29.49
2023-05-07T12:21:18.480Z,29.42
2023-05-07T12:23:46.377Z,29.24
2023-05-07T12:26:13.643Z,28.92
2023-05-07T12:28:40.990Z,28.39
2023-05-07T12:31:09.315Z,28.88
2023-05-07T12:33:37.271Z,29.17
2023-05-07T12:36:07.973Z,29.48
2023-05-07T12:38:44.441Z,28.70
2023-05-07T12:41:13.717Z,29.70
2023-05-07T12:43:41.025Z,28.89
2023-05-07T12:46:09.586Z,29.09
2023-05-07T12:48:44.463Z,29.25
2023-05-07T12:51:13.509Z,29.37
2023-05-07T12:53:43.602Z,29.64
2023-05-07T12:56:11.163Z,29.40
2023-05-07T12:58:38.394Z,29.73
2023-05-07T13:01:08.431Z,29.29
2023-05-07T13:03:37.625Z,29.64
2023-05-07T13:06:07.643Z,29.55
2023-05-07T13:08:46.636Z,29.64
2023-05-07T13:11:14.486Z,29.74
2023-05-07T13:13:42.489Z,28.82
2023-05-07T13:16:12.290Z,27.98
2023-05-07T13:18:41.631Z,27.48
2023-05-07T13:21:08.996Z,27.09
2023-05-07T13:23:36.216Z,26.57
2023-05-07T13:26:08.552Z,26.36
2023-05-07T13:28:38.771Z,25.99
2023-05-07T13:31:05.839Z,26.47
2023-05-07T13:33:32.925Z,26.66
2023-05-07T13:36:01.704Z,26.94
2023-05-07T13:38:28.800Z,27.14
2023-05-07T13:40:56.265Z,27.00
2023-05-07T13:43:23.392Z,26.90
2023-05-07T13:45:50.615Z,27.30
2023-05-07T13:48:17.949Z,27.87
2023-05-07T13:50:45.140Z,27.37
2023-05-07T13:53:12.254Z,28.05
2023-05-07T13:55:39.392Z,28.07
2023-05-07T13:58:07.528Z,28.06
2023-05-07T14:00:34.973Z,28.47
2023-05-07T14:03:02.388Z,28.49
2023-05-07T14:05:29.472Z,28.27
2023-05-07T14:07:58.807Z,28.52
2023-05-07T14:10:26.214Z,28.49
2023-05-07T14:12:54.054Z,28.37
2023-05-07T14:15:21.361Z,27.83
2023-05-07T14:17:48.381Z,27.47
2023-05-07T14:20:15.609Z,26.98
2023-05-07T14:22:43.098Z,26.39
2023-05-07T14:25:14.202Z,25.33
2023-05-07T14:27:43.174Z,24.83
2023-05-07T14:30:10.730Z,24.58
2023-05-07T14:32:37.972Z,24.65
2023-05-07T14:35:05.557Z,25.15
2023-05-07T14:37:34.281Z,25.17
2023-05-07T14:40:01.316Z,25.49
2023-05-07T14:42:28.898Z,25.53
2023-05-07T14:44:55.953Z,26.06
2023-05-07T14:47:23.343Z,26.13
2023-05-07T14:49:50.582Z,26.31
2023-05-07T14:52:17.953Z,26.69
2023-05-07T14:54:44.936Z,26.38
2023-05-07T14:57:14.606Z,27.18
2023-05-07T14:59:42.632Z,26.90
2023-05-07T15:02:11.485Z,26.96
2023-05-07T15:04:40.791Z,26.89
2023-05-07T15:07:07.781Z,26.84
2023-05-07T15:09:34.833Z,26.97
2023-05-07T15:12:03.416Z,26.73
2023-05-07T15:14:30.818Z,27.07
2023-05-07T15:16:57.978Z,27.61
2023-05-07T15:19:29.965Z,27.50
2023-05-07T15:21:59.016Z,27.59
2023-05-07T15:24:26.262Z,27.44
2023-05-07T15:26:53.554Z,27.47
2023-05-07T15:29:21.451Z,27.81
2023-05-07T15:31:48.689Z,27.17
2023-05-07T15:34:18.574Z,26.74
2023-05-07T15:36:45.877Z,26.71
2023-05-07T15:39:12.975Z,26.68
2023-05-07T15:41:40.118Z,27.08
2023-05-07T15:44:07.294Z,26.93
2023-05-07T15:46:34.331Z,26.91
2023-05-07T15:49:06.686Z,27.53
2023-05-07T15:51:37.192Z,27.38
2023-05-07T15:54:04.877Z,27.85
2023-05-07T15:56:35.165Z,27.71
2023-05-07T15:59:03.820Z,28.19
2023-05-07T16:01:31.526Z,28.12
2023-05-07T16:03:58.899Z,28.13
2023-05-07T16:06:26.357Z,28.55
2023-05-07T16:08:53.566Z,28.32
2023-05-07T16:11:20.665Z,28.48
2023-05-07T16:13:47.801Z,28.67
2023-05-07T16:16:14.826Z,28.50
2023-05-07T16:18:42.002Z,28.64
2023-05-07T16:21:09.305Z,28.74
2023-05-07T16:23:37.406Z,28.49
2023-05-07T16:26:05.278Z,28.50
2023-05-07T16:28:32.591Z,28.58
2023-05-07T16:30:59.902Z,28.40
2023-05-07T16:33:27.280Z,28.45
2023-05-07T16:35:54.440Z,28.21
2023-05-07T16:38:21.884Z,28.03
2023-05-07T16:40:49.032Z,28.17
2023-05-07T16:43:16.209Z,27.68
2023-05-07T16:45:43.401Z,27.73
2023-05-07T16:48:11.413Z,27.12
2023-05-07T16:50:38.579Z,27.30
2023-05-07T16:53:07.018Z,27.32
2023-05-07T16:55:38.953Z,27.03
2023-05-07T16:58:07.145Z,26.85
2023-05-07T17:00:46.298Z,26.95
2023-05-07T17:03:18.618Z,27.56
2023-05-07T17:05:46.139Z,27.53
2023-05-07T17:08:14.307Z,28.08
2023-05-07T17:10:42.217Z,28.32
2023-05-07T17:13:09.465Z,28.48
2023-05-07T17:15:36.678Z,28.66
2023-05-07T17:18:04.001Z,29.04
2023-05-07T17:20:31.351Z,29.13
2023-05-07T17:22:58.415Z,29.54
2023-05-07T17:25:25.656Z,29.29
2023-05-07T17:27:53.038Z,29.53
2023-05-07T17:30:21.022Z,29.73
2023-05-07T17:32:48.284Z,29.93
2023-05-07T17:35:15.792Z,30.29
2023-05-07T17:37:47.306Z,30.36
2023-05-07T17:40:15.506Z,30.42
2023-05-07T17:42:42.700Z,30.29
2023-05-07T17:45:10.671Z,30.83
2023-05-07T17:47:37.962Z,30.89
2023-05-07T17:50:10.856Z,30.93
2023-05-07T17:52:39.393Z,31.51
2023-05-07T17:55:07.354Z,30.81
2023-05-07T17:57:37.488Z,31.37
2023-05-07T18:00:10.324Z,31.25
2023-05-07T18:02:40.960Z,31.17
2023-05-07T18:05:09.660Z,31.26
2023-05-07T18:07:37.441Z,32.06
2023-05-07T18:10:04.948Z,31.90
2023-05-07T18:12:34.141Z,31.91
2023-05-07T18:15:02.272Z,32.20
2023-05-07T18:17:34.743Z,32.16
2023-05-07T18:20:02.834Z,32.48
2023-05-07T18:22:32.374Z,32.20
2023-05-07T18:25:00.604Z,32.48
2023-05-07T18:27:27.798Z,32.41
2023-05-07T18:29:55.149Z,32.86
2023-05-07T18:32:22.757Z,33.01
2023-05-07T18:34:50.155Z,32.80
2023-05-07T18:37:17.393Z,33.49
2023-05-07T18:39:44.649Z,33.27
2023-05-07T18:42:15.317Z,33.87
2023-05-07T18:44:42.644Z,33.50
2023-05-07T18:47:14.024Z,33.77
2023-05-07T18:49:41.292Z,33.50
2023-05-07T18:52:08.369Z,34.14
2023-05-07T18:54:35.583Z,33.69
2023-05-07T18:57:02.670Z,34.04
2023-05-07T18:59:29.893Z,34.13
2023-05-07T19:01:57.065Z,34.49
2023-05-07T19:04:24.676Z,34.32
2023-05-07T19:06:52.127Z,34.64
2023-05-07T19:09:19.219Z,34.36
2023-05-07T19:11:46.307Z,34.96
2023-05-07T19:14:13.320Z,34.80
2023-05-07T19:16:40.556Z,34.79
2023-05-07T19:19:07.761Z,34.63
2023-05-07T19:21:34.853Z,34.94
2023-05-07T19:24:01.986Z,35.10
2023-05-07T19:26:29.117Z,35.25
2023-05-07T19:29:12.189Z,35.63
2023-05-07T19:31:45.937Z,35.32
2023-05-07T19:34:16.173Z,35.59
2023-05-07T19:36:43.555Z,35.87
2023-05-07T19:39:11.790Z,35.80
2023-05-07T19:41:39.078Z,36.12
2023-05-07T19:44:06.124Z,36.02
2023-05-07T19:46:33.646Z,36.28
2023-05-07T19:49:02.128Z,36.47
2023-05-07T19:51:32.532Z,36.24
2023-05-07T19:54:00.203Z,36.39
2023-05-07T19:56:27.485Z,36.10
2023-05-07T19:58:55.116Z,36.58
2023-05-07T20:01:22.259Z,36.93
2023-05-07T20:03:49.456Z,36.61
2023-05-07T20:06:16.615Z,36.69
2023-05-07T20:08:45.041Z,36.88
2023-05-07T20:11:13.566Z,36.81
2023-05-07T20:13:41.101Z,37.59
2023-05-07T20:16:08.330Z,37.41
2023-05-07T20:18:35.522Z,37.15
2023-05-07T20:21:02.765Z,37.63
2023-05-07T20:23:29.819Z,37.30
2023-05-07T20:25:58.110Z,37.62
2023-05-07T20:28:25.777Z,37.59
2023-05-07T20:30:52.911Z,37.81
2023-05-07T20:33:19.984Z,37.81
2023-05-07T20:35:47.236Z,38.08
2023-05-07T20:38:14.569Z,38.25
2023-05-07T20:40:41.734Z,38.13
2023-05-07T20:43:08.968Z,38.50
2023-05-07T20:45:36.200Z,38.41
2023-05-07T20:48:03.408Z,38.53
2023-05-07T20:50:30.891Z,38.69
2023-05-07T20:52:58.050Z,38.67
2023-05-07T20:55:25.150Z,38.81
2023-05-07T20:57:52.234Z,38.73
2023-05-07T21:00:19.754Z,38.93
2023-05-07T21:02:48.151Z,38.97
2023-05-07T21:05:15.417Z,39.00
2023-05-07T21:07:42.423Z,39.18
2023-05-07T21:10:10.030Z,39.61
2023-05-07T21:12:37.312Z,39.50
2023-05-07T21:15:04.613Z,39.32
2023-05-07T21:17:35.363Z,39.59
2023-05-07T21:20:03.964Z,39.96
2023-05-07T21:22:33.808Z,39.65
2023-05-07T21:25:01.473Z,40.12
2023-05-07T21:27:32.561Z,39.92
2023-05-07T21:30:04.855Z,40.18
2023-05-07T21:32:34.107Z,40.46
2023-05-07T21:35:02.054Z,40.50
2023-05-07T21:37:34.077Z,40.58
2023-05-07T21:40:01.194Z,40.48
2023-05-07T21:42:32.642Z,40.66
2023-05-07T21:45:00.422Z,41.02
2023-05-07T21:47:27.977Z,40.75
2023-05-07T21:49:55.754Z,40.95
2023-05-07T21:52:26.142Z,41.16
2023-05-07T21:54:53.977Z,41.07
2023-05-07T21:57:21.548Z,40.75
2023-05-07T21:59:48.689Z,41.23
2023-05-07T22:02:15.805Z,41.26
2023-05-07T22:04:43.510Z,41.14
2023-05-07T22:07:10.770Z,41.32
2023-05-07T22:09:56.439Z,41.38
2023-05-07T22:12:23.849Z,41.20
2023-05-07T22:14:51.051Z,41.54
2023-05-07T22:17:18.049Z,41.73
2023-05-07T22:19:45.364Z,41.53
2023-05-07T22:22:12.390Z,41.75
2023-05-07T22:24:39.483Z,41.81
2023-05-07T22:27:06.579Z,41.91
2023-05-07T22:29:33.818Z,42.04
2023-05-07T22:32:00.951Z,42.13
2023-05-07T22:34:28.348Z,41.92
2023-05-07T22:36:55.440Z,42.19
2023-05-07T22:39:22.451Z,42.24
2023-05-07T22:41:49.761Z,42.12
2023-05-07T22:44:17.088Z,42.14
2023-05-07T22:46:44.328Z,42.46
2023-05-07T22:49:11.415Z,42.38
2023-05-07T22:51:38.369Z,42.86
2023-05-07T22:54:05.623Z,42.72
2023-05-07T22:56:32.630Z,42.78
2023-05-07T22:58:59.908Z,42.83
2023-05-07T23:01:27.175Z,43.11
2023-05-07T23:03:55.012Z,43.15
2023-05-07T23:06:22.083Z,43.48
2023-05-07T23:08:49.148Z,43.09
2023-05-07T23:11:16.452Z,43.45
2023-05-07T23:13:43.447Z,43.38
2023-05-07T23:16:11.196Z,43.65
2023-05-07T23:18:38.255Z,43.48
2023-05-07T23:21:06.771Z,43.51
2023-05-07T23:23:35.490Z,43.91
2023-05-07T23:26:02.709Z,43.59
2023-05-07T23:28:29.858Z,43.96
2023-05-07T23:30:57.053Z,43.81
2023-05-07T23:33:24.152Z,44.24
2023-05-07T23:35:59.607Z,45.12
2023-05-07T23:38:27.004Z,44.28
2023-05-07T23:40:55.881Z,44.61
2023-05-07T23:43:23.515Z,44.43
2023-05-07T23:45:50.830Z,44.65
2023-05-07T23:48:18.381Z,44.75
2023-05-07T23:50:45.486Z,44.60
2023-05-07T23:53:12.492Z,44.70
2023-05-07T23:55:39.559Z,44.86
2023-05-07T23:58:06.565Z,45.15
